sensor_id;sensor_type;location;lat;lon;timestamp;temperature;humidity
25628;DHT22;40915;50.826;4.356;2022-07-10T00:01:07;16.10;99.90
25628;DHT22;40915;50.826;4.356;2022-07-10T00:03:33;16.20;99.90
25628;DHT22;40915;50.826;4.356;2022-07-10T00:05:59;16.20;99.90
25628;DHT22;40915;50.826;4.356;2022-07-10T00:08:25;16.20;99.90
25628;DHT22;40915;50.826;4.356;2022-07-10T00:10:50;16.20;99.90
25628;DHT22;40915;50.826;4.356;2022-07-10T00:13:16;16.20;99.90
25628;DHT22;40915;50.826;4.356;2022-07-10T00:15:41;16.20;99.90
25628;DHT22;40915;50.826;4.356;2022-07-10T00:18:07;16.20;99.90
25628;DHT22;40915;50.826;4.356;2022-07-10T00:20:33;16.10;99.90
25628;DHT22;40915;50.826;4.356;2022-07-10T00:22:59;16.20;99.90
25628;DHT22;40915;50.826;4.356;2022-07-10T00:25:25;16.10;99.90
25628;DHT22;40915;50.826;4.356;2022-07-10T00:27:51;16.10;99.90
25628;DHT22;40915;50.826;4.356;2022-07-10T00:30:16;16.00;99.90
25628;DHT22;40915;50.826;4.356;2022-07-10T00:32:42;15.90;99.90
25628;DHT22;40915;50.826;4.356;2022-07-10T00:35:08;15.90;99.90
25628;DHT22;40915;50.826;4.356;2022-07-10T00:37:34;15.80;99.90
25628;DHT22;40915;50.826;4.356;2022-07-10T00:39:59;15.80;99.90
25628;DHT22;40915;50.826;4.356;2022-07-10T00:42:26;15.80;99.90
25628;DHT22;40915;50.826;4.356;2022-07-10T00:44:51;15.80;99.90
25628;DHT22;40915;50.826;4.356;2022-07-10T00:47:18;15.80;99.90
25628;DHT22;40915;50.826;4.356;2022-07-10T00:49:45;15.80;99.90
25628;DHT22;40915;50.826;4.356;2022-07-10T00:52:12;15.80;99.90
25628;DHT22;40915;50.826;4.356;2022-07-10T00:54:41;15.80;99.90
25628;DHT22;40915;50.826;4.356;2022-07-10T00:57:07;15.70;99.90
25628;DHT22;40915;50.826;4.356;2022-07-10T00:59:34;15.70;99.90
25628;DHT22;40915;50.826;4.356;2022-07-10T01:02:01;15.70;99.90
25628;DHT22;40915;50.826;4.356;2022-07-10T01:04:27;15.70;99.90
25628;DHT22;40915;50.826;4.356;2022-07-10T01:06:52;15.70;99.90
25628;DHT22;40915;50.826;4.356;2022-07-10T01:09:18;15.70;99.90
25628;DHT22;40915;50.826;4.356;2022-07-10T01:11:43;15.60;99.90
25628;DHT22;40915;50.826;4.356;2022-07-10T01:14:10;15.60;99.90
25628;DHT22;40915;50.826;4.356;2022-07-10T01:16:37;15.60;99.90
25628;DHT22;40915;50.826;4.356;2022-07-10T01:19:02;15.50;99.90
25628;DHT22;40915;50.826;4.356;2022-07-10T01:21:35;15.50;99.90
25628;DHT22;40915;50.826;4.356;2022-07-10T01:24:06;15.50;99.90
25628;DHT22;40915;50.826;4.356;2022-07-10T01:26:33;15.50;99.90
25628;DHT22;40915;50.826;4.356;2022-07-10T01:29:03;15.50;99.90
25628;DHT22;40915;50.826;4.356;2022-07-10T01:31:29;15.60;99.90
25628;DHT22;40915;50.826;4.356;2022-07-10T01:33:55;15.60;99.90
25628;DHT22;40915;50.826;4.356;2022-07-10T01:36:22;15.60;99.90
25628;DHT22;40915;50.826;4.356;2022-07-10T01:38:49;15.40;99.90
25628;DHT22;40915;50.826;4.356;2022-07-10T01:41:16;15.40;99.90
25628;DHT22;40915;50.826;4.356;2022-07-10T01:43:41;15.40;99.90
25628;DHT22;40915;50.826;4.356;2022-07-10T01:46:09;15.40;99.90
25628;DHT22;40915;50.826;4.356;2022-07-10T01:48:37;15.40;99.90
25628;DHT22;40915;50.826;4.356;2022-07-10T01:51:03;15.40;99.90
25628;DHT22;40915;50.826;4.356;2022-07-10T01:53:29;15.30;99.90
25628;DHT22;40915;50.826;4.356;2022-07-10T01:55:55;15.30;99.90
25628;DHT22;40915;50.826;4.356;2022-07-10T01:58:21;15.30;99.90
25628;DHT22;40915;50.826;4.356;2022-07-10T02:00:46;15.30;99.90
25628;DHT22;40915;50.826;4.356;2022-07-10T02:03:12;15.40;99.90
25628;DHT22;40915;50.826;4.356;2022-07-10T02:05:56;15.30;99.90
25628;DHT22;40915;50.826;4.356;2022-07-10T02:08:22;15.30;99.90
25628;DHT22;40915;50.826;4.356;2022-07-10T02:10:47;15.30;99.90
25628;DHT22;40915;50.826;4.356;2022-07-10T02:13:13;15.30;99.90
25628;DHT22;40915;50.826;4.356;2022-07-10T02:15:40;15.30;99.90
25628;DHT22;40915;50.826;4.356;2022-07-10T02:18:07;15.30;99.90
25628;DHT22;40915;50.826;4.356;2022-07-10T02:20:32;15.30;99.90
25628;DHT22;40915;50.826;4.356;2022-07-10T02:22:59;15.20;99.90
25628;DHT22;40915;50.826;4.356;2022-07-10T02:25:25;15.20;99.90
25628;DHT22;40915;50.826;4.356;2022-07-10T02:27:51;15.20;99.90
25628;DHT22;40915;50.826;4.356;2022-07-10T02:30:16;15.20;99.90
25628;DHT22;40915;50.826;4.356;2022-07-10T02:32:42;15.20;99.90
25628;DHT22;40915;50.826;4.356;2022-07-10T02:35:08;15.20;99.90
25628;DHT22;40915;50.826;4.356;2022-07-10T02:37:33;15.20;99.90
25628;DHT22;40915;50.826;4.356;2022-07-10T02:39:59;15.20;99.90
25628;DHT22;40915;50.826;4.356;2022-07-10T02:42:24;15.20;99.90
25628;DHT22;40915;50.826;4.356;2022-07-10T02:44:50;15.20;99.90
25628;DHT22;40915;50.826;4.356;2022-07-10T02:47:16;15.20;99.90
25628;DHT22;40915;50.826;4.356;2022-07-10T02:49:41;15.20;99.90
25628;DHT22;40915;50.826;4.356;2022-07-10T02:52:07;15.20;99.90
25628;DHT22;40915;50.826;4.356;2022-07-10T02:54:32;15.20;99.90
25628;DHT22;40915;50.826;4.356;2022-07-10T02:56:58;15.30;99.90
25628;DHT22;40915;50.826;4.356;2022-07-10T02:59:23;15.30;99.90
25628;DHT22;40915;50.826;4.356;2022-07-10T03:01:49;15.30;99.90
25628;DHT22;40915;50.826;4.356;2022-07-10T03:04:15;15.30;99.90
25628;DHT22;40915;50.826;4.356;2022-07-10T03:06:40;15.30;99.90
25628;DHT22;40915;50.826;4.356;2022-07-10T03:09:06;15.20;99.90
25628;DHT22;40915;50.826;4.356;2022-07-10T03:11:31;15.20;99.90
25628;DHT22;40915;50.826;4.356;2022-07-10T03:13:57;15.20;99.90
25628;DHT22;40915;50.826;4.356;2022-07-10T03:16:22;15.20;99.90
25628;DHT22;40915;50.826;4.356;2022-07-10T03:18:48;15.10;99.90
25628;DHT22;40915;50.826;4.356;2022-07-10T03:21:14;15.10;99.90
25628;DHT22;40915;50.826;4.356;2022-07-10T03:23:39;15.10;99.90
25628;DHT22;40915;50.826;4.356;2022-07-10T03:26:05;15.10;99.90
25628;DHT22;40915;50.826;4.356;2022-07-10T03:28:31;15.10;99.90
25628;DHT22;40915;50.826;4.356;2022-07-10T03:30:56;15.10;99.90
25628;DHT22;40915;50.826;4.356;2022-07-10T03:33:22;15.10;99.90
25628;DHT22;40915;50.826;4.356;2022-07-10T03:35:48;15.10;99.90
25628;DHT22;40915;50.826;4.356;2022-07-10T03:38:13;15.00;99.90
25628;DHT22;40915;50.826;4.356;2022-07-10T03:40:39;15.00;99.90
25628;DHT22;40915;50.826;4.356;2022-07-10T03:43:05;15.10;99.90
25628;DHT22;40915;50.826;4.356;2022-07-10T03:45:30;15.10;99.90
25628;DHT22;40915;50.826;4.356;2022-07-10T03:47:56;15.10;99.90
25628;DHT22;40915;50.826;4.356;2022-07-10T03:50:22;15.10;99.90
25628;DHT22;40915;50.826;4.356;2022-07-10T03:52:47;15.10;99.90
25628;DHT22;40915;50.826;4.356;2022-07-10T03:55:13;15.20;99.90
25628;DHT22;40915;50.826;4.356;2022-07-10T03:57:38;15.10;99.90
25628;DHT22;40915;50.826;4.356;2022-07-10T04:00:23;15.10;99.90
25628;DHT22;40915;50.826;4.356;2022-07-10T04:02:55;15.10;99.90
25628;DHT22;40915;50.826;4.356;2022-07-10T04:05:21;15.20;99.90
25628;DHT22;40915;50.826;4.356;2022-07-10T04:07:47;15.20;99.90
25628;DHT22;40915;50.826;4.356;2022-07-10T04:10:13;15.20;99.90
25628;DHT22;40915;50.826;4.356;2022-07-10T04:12:39;15.20;99.90
25628;DHT22;40915;50.826;4.356;2022-07-10T04:15:05;15.20;99.90
25628;DHT22;40915;50.826;4.356;2022-07-10T04:17:31;15.20;99.90
25628;DHT22;40915;50.826;4.356;2022-07-10T04:20:01;15.20;99.90
25628;DHT22;40915;50.826;4.356;2022-07-10T04:22:27;15.30;99.90
25628;DHT22;40915;50.826;4.356;2022-07-10T04:24:54;15.30;99.90
25628;DHT22;40915;50.826;4.356;2022-07-10T04:27:20;15.30;99.90
25628;DHT22;40915;50.826;4.356;2022-07-10T04:29:46;15.30;99.90
25628;DHT22;40915;50.826;4.356;2022-07-10T04:32:12;15.20;99.90
25628;DHT22;40915;50.826;4.356;2022-07-10T04:34:37;15.30;99.90
25628;DHT22;40915;50.826;4.356;2022-07-10T04:37:04;15.30;99.90
25628;DHT22;40915;50.826;4.356;2022-07-10T04:39:30;15.30;99.90
25628;DHT22;40915;50.826;4.356;2022-07-10T04:41:56;15.30;99.90
25628;DHT22;40915;50.826;4.356;2022-07-10T04:44:21;15.30;99.90
25628;DHT22;40915;50.826;4.356;2022-07-10T04:46:47;15.30;99.90
25628;DHT22;40915;50.826;4.356;2022-07-10T04:49:13;15.30;99.90
25628;DHT22;40915;50.826;4.356;2022-07-10T04:51:39;15.30;99.90
25628;DHT22;40915;50.826;4.356;2022-07-10T04:54:04;15.30;99.90
25628;DHT22;40915;50.826;4.356;2022-07-10T04:56:30;15.30;99.90
25628;DHT22;40915;50.826;4.356;2022-07-10T04:58:55;15.30;99.90
25628;DHT22;40915;50.826;4.356;2022-07-10T05:01:21;15.40;99.90
25628;DHT22;40915;50.826;4.356;2022-07-10T05:03:47;15.40;99.90
25628;DHT22;40915;50.826;4.356;2022-07-10T05:06:13;15.40;99.90
25628;DHT22;40915;50.826;4.356;2022-07-10T05:08:38;15.40;99.90
25628;DHT22;40915;50.826;4.356;2022-07-10T05:11:04;15.30;99.90
25628;DHT22;40915;50.826;4.356;2022-07-10T05:13:30;15.40;99.90
25628;DHT22;40915;50.826;4.356;2022-07-10T05:15:56;15.40;99.90
25628;DHT22;40915;50.826;4.356;2022-07-10T05:18:22;15.40;99.90
25628;DHT22;40915;50.826;4.356;2022-07-10T05:20:47;15.50;99.90
25628;DHT22;40915;50.826;4.356;2022-07-10T05:23:14;15.50;99.90
25628;DHT22;40915;50.826;4.356;2022-07-10T05:25:41;15.50;99.90
25628;DHT22;40915;50.826;4.356;2022-07-10T05:28:06;15.50;99.90
25628;DHT22;40915;50.826;4.356;2022-07-10T05:30:32;15.60;99.90
25628;DHT22;40915;50.826;4.356;2022-07-10T05:32:59;15.60;99.90
25628;DHT22;40915;50.826;4.356;2022-07-10T05:35:25;15.60;99.90
25628;DHT22;40915;50.826;4.356;2022-07-10T05:37:52;15.60;99.90
25628;DHT22;40915;50.826;4.356;2022-07-10T05:40:17;15.60;99.90
25628;DHT22;40915;50.826;4.356;2022-07-10T05:42:43;15.60;99.90
25628;DHT22;40915;50.826;4.356;2022-07-10T05:45:10;15.60;99.90
25628;DHT22;40915;50.826;4.356;2022-07-10T05:47:37;15.60;99.90
25628;DHT22;40915;50.826;4.356;2022-07-10T05:50:03;15.70;99.90
25628;DHT22;40915;50.826;4.356;2022-07-10T05:52:29;15.70;99.90
25628;DHT22;40915;50.826;4.356;2022-07-10T05:54:56;15.80;99.90
25628;DHT22;40915;50.826;4.356;2022-07-10T05:57:22;15.80;99.90
25628;DHT22;40915;50.826;4.356;2022-07-10T05:59:50;15.90;99.90
25628;DHT22;40915;50.826;4.356;2022-07-10T06:02:16;15.90;99.90
25628;DHT22;40915;50.826;4.356;2022-07-10T06:04:42;16.00;99.90
25628;DHT22;40915;50.826;4.356;2022-07-10T06:07:08;16.20;99.90
25628;DHT22;40915;50.826;4.356;2022-07-10T06:09:34;16.40;99.90
25628;DHT22;40915;50.826;4.356;2022-07-10T06:12:00;16.40;99.90
25628;DHT22;40915;50.826;4.356;2022-07-10T06:14:26;16.60;99.90
25628;DHT22;40915;50.826;4.356;2022-07-10T06:16:52;16.70;99.90
25628;DHT22;40915;50.826;4.356;2022-07-10T06:19:17;16.80;99.90
25628;DHT22;40915;50.826;4.356;2022-07-10T06:21:44;17.00;99.90
25628;DHT22;40915;50.826;4.356;2022-07-10T06:24:10;17.00;99.90
25628;DHT22;40915;50.826;4.356;2022-07-10T06:26:35;17.00;99.90
25628;DHT22;40915;50.826;4.356;2022-07-10T06:29:01;16.90;99.90
25628;DHT22;40915;50.826;4.356;2022-07-10T06:31:27;17.00;99.90
25628;DHT22;40915;50.826;4.356;2022-07-10T06:33:54;17.00;99.90
25628;DHT22;40915;50.826;4.356;2022-07-10T06:36:19;17.00;99.90
25628;DHT22;40915;50.826;4.356;2022-07-10T06:38:45;17.10;99.90
25628;DHT22;40915;50.826;4.356;2022-07-10T06:41:11;17.20;99.90
25628;DHT22;40915;50.826;4.356;2022-07-10T06:43:37;17.10;99.90
25628;DHT22;40915;50.826;4.356;2022-07-10T06:46:03;17.20;99.90
25628;DHT22;40915;50.826;4.356;2022-07-10T06:48:29;17.30;99.90
25628;DHT22;40915;50.826;4.356;2022-07-10T06:50:58;17.30;99.90
25628;DHT22;40915;50.826;4.356;2022-07-10T06:53:24;17.40;99.90
25628;DHT22;40915;50.826;4.356;2022-07-10T06:55:52;17.60;99.90
25628;DHT22;40915;50.826;4.356;2022-07-10T06:58:18;17.50;99.90
25628;DHT22;40915;50.826;4.356;2022-07-10T07:00:43;17.50;99.90
25628;DHT22;40915;50.826;4.356;2022-07-10T07:03:09;17.50;99.90
25628;DHT22;40915;50.826;4.356;2022-07-10T07:05:35;17.70;99.90
25628;DHT22;40915;50.826;4.356;2022-07-10T07:08:00;17.80;99.90
25628;DHT22;40915;50.826;4.356;2022-07-10T07:10:26;17.80;99.90
25628;DHT22;40915;50.826;4.356;2022-07-10T07:12:51;18.00;99.90
25628;DHT22;40915;50.826;4.356;2022-07-10T07:15:17;18.00;99.90
25628;DHT22;40915;50.826;4.356;2022-07-10T07:17:43;18.10;99.90
25628;DHT22;40915;50.826;4.356;2022-07-10T07:20:28;18.10;99.90
25628;DHT22;40915;50.826;4.356;2022-07-10T07:23:12;18.10;99.90
25628;DHT22;40915;50.826;4.356;2022-07-10T07:25:39;18.30;99.90
25628;DHT22;40915;50.826;4.356;2022-07-10T07:28:08;18.30;99.90
25628;DHT22;40915;50.826;4.356;2022-07-10T07:30:34;18.30;99.90
25628;DHT22;40915;50.826;4.356;2022-07-10T07:33:00;18.50;99.90
25628;DHT22;40915;50.826;4.356;2022-07-10T07:35:26;18.40;99.90
25628;DHT22;40915;50.826;4.356;2022-07-10T07:37:52;18.50;99.90
25628;DHT22;40915;50.826;4.356;2022-07-10T07:40:22;18.60;99.90
25628;DHT22;40915;50.826;4.356;2022-07-10T07:42:53;18.40;99.90
25628;DHT22;40915;50.826;4.356;2022-07-10T07:45:19;18.60;99.90
25628;DHT22;40915;50.826;4.356;2022-07-10T07:50:13;19.10;99.90
25628;DHT22;40915;50.826;4.356;2022-07-10T07:52:38;19.20;99.90
25628;DHT22;40915;50.826;4.356;2022-07-10T07:55:04;19.50;99.90
25628;DHT22;40915;50.826;4.356;2022-07-10T07:57:30;19.80;99.90
25628;DHT22;40915;50.826;4.356;2022-07-10T07:59:56;19.80;99.90
25628;DHT22;40915;50.826;4.356;2022-07-10T08:02:21;20.00;99.90
25628;DHT22;40915;50.826;4.356;2022-07-10T08:04:47;20.10;99.90
25628;DHT22;40915;50.826;4.356;2022-07-10T08:07:13;20.00;99.90
25628;DHT22;40915;50.826;4.356;2022-07-10T08:09:39;20.10;99.90
25628;DHT22;40915;50.826;4.356;2022-07-10T08:12:05;20.50;99.90
25628;DHT22;40915;50.826;4.356;2022-07-10T08:14:30;20.50;99.90
25628;DHT22;40915;50.826;4.356;2022-07-10T08:16:56;20.60;99.90
25628;DHT22;40915;50.826;4.356;2022-07-10T08:19:22;20.70;99.90
25628;DHT22;40915;50.826;4.356;2022-07-10T08:21:48;20.80;99.90
25628;DHT22;40915;50.826;4.356;2022-07-10T08:24:13;21.20;99.90
25628;DHT22;40915;50.826;4.356;2022-07-10T08:26:40;21.60;99.90
25628;DHT22;40915;50.826;4.356;2022-07-10T08:29:06;22.10;99.90
25628;DHT22;40915;50.826;4.356;2022-07-10T08:31:31;21.80;99.90
25628;DHT22;40915;50.826;4.356;2022-07-10T08:33:59;22.00;99.90
25628;DHT22;40915;50.826;4.356;2022-07-10T08:36:25;21.70;99.90
25628;DHT22;40915;50.826;4.356;2022-07-10T08:38:53;21.80;99.90
25628;DHT22;40915;50.826;4.356;2022-07-10T08:41:25;21.70;99.90
25628;DHT22;40915;50.826;4.356;2022-07-10T08:43:52;21.70;99.90
25628;DHT22;40915;50.826;4.356;2022-07-10T08:46:18;21.80;99.90
25628;DHT22;40915;50.826;4.356;2022-07-10T08:48:47;21.80;99.90
25628;DHT22;40915;50.826;4.356;2022-07-10T08:51:30;22.00;99.90
25628;DHT22;40915;50.826;4.356;2022-07-10T08:54:00;21.90;99.90
25628;DHT22;40915;50.826;4.356;2022-07-10T08:56:26;21.90;99.90
25628;DHT22;40915;50.826;4.356;2022-07-10T08:58:52;22.10;99.90
25628;DHT22;40915;50.826;4.356;2022-07-10T09:01:19;21.90;99.90
25628;DHT22;40915;50.826;4.356;2022-07-10T09:03:49;21.80;99.90
25628;DHT22;40915;50.826;4.356;2022-07-10T09:06:16;21.60;99.90
25628;DHT22;40915;50.826;4.356;2022-07-10T09:09:06;21.80;99.90
25628;DHT22;40915;50.826;4.356;2022-07-10T09:11:33;21.40;99.90
25628;DHT22;40915;50.826;4.356;2022-07-10T09:14:01;21.40;99.90
25628;DHT22;40915;50.826;4.356;2022-07-10T09:16:31;21.30;99.90
25628;DHT22;40915;50.826;4.356;2022-07-10T09:19:24;21.40;99.90
25628;DHT22;40915;50.826;4.356;2022-07-10T09:21:52;21.60;99.90
25628;DHT22;40915;50.826;4.356;2022-07-10T09:24:19;21.70;99.90
25628;DHT22;40915;50.826;4.356;2022-07-10T09:26:59;21.80;99.90
25628;DHT22;40915;50.826;4.356;2022-07-10T09:29:26;22.00;99.90
25628;DHT22;40915;50.826;4.356;2022-07-10T09:31:53;22.00;99.90
25628;DHT22;40915;50.826;4.356;2022-07-10T09:34:44;21.70;99.90
25628;DHT22;40915;50.826;4.356;2022-07-10T09:37:19;21.70;99.90
25628;DHT22;40915;50.826;4.356;2022-07-10T09:42:39;21.70;99.90
25628;DHT22;40915;50.826;4.356;2022-07-10T09:50:27;22.30;99.90
25628;DHT22;40915;50.826;4.356;2022-07-10T09:53:03;22.50;99.90
25628;DHT22;40915;50.826;4.356;2022-07-10T09:55:32;22.10;99.90
25628;DHT22;40915;50.826;4.356;2022-07-10T09:58:03;22.00;99.90
25628;DHT22;40915;50.826;4.356;2022-07-10T10:00:34;22.00;99.90
25628;DHT22;40915;50.826;4.356;2022-07-10T10:03:06;22.10;99.90
25628;DHT22;40915;50.826;4.356;2022-07-10T10:08:28;22.20;99.90
25628;DHT22;40915;50.826;4.356;2022-07-10T10:10:56;22.10;99.90
25628;DHT22;40915;50.826;4.356;2022-07-10T10:13:24;22.00;99.90
25628;DHT22;40915;50.826;4.356;2022-07-10T10:15:52;21.90;99.90
25628;DHT22;40915;50.826;4.356;2022-07-10T10:18:22;21.70;99.90
25628;DHT22;40915;50.826;4.356;2022-07-10T10:20:50;21.60;99.90
25628;DHT22;40915;50.826;4.356;2022-07-10T10:23:18;21.60;99.90
25628;DHT22;40915;50.826;4.356;2022-07-10T10:25:50;21.60;99.90
25628;DHT22;40915;50.826;4.356;2022-07-10T10:28:17;21.60;99.90
25628;DHT22;40915;50.826;4.356;2022-07-10T10:30:59;21.20;99.90
25628;DHT22;40915;50.826;4.356;2022-07-10T10:36:01;21.30;99.90
25628;DHT22;40915;50.826;4.356;2022-07-10T10:49:21;21.30;99.90
25628;DHT22;40915;50.826;4.356;2022-07-10T10:52:00;21.50;99.90
25628;DHT22;40915;50.826;4.356;2022-07-10T10:57:21;21.70;99.90
25628;DHT22;40915;50.826;4.356;2022-07-10T11:02:31;22.30;99.90
25628;DHT22;40915;50.826;4.356;2022-07-10T11:10:44;22.50;99.90
25628;DHT22;40915;50.826;4.356;2022-07-10T11:13:15;22.70;99.90
25628;DHT22;40915;50.826;4.356;2022-07-10T11:15:42;22.60;99.90
25628;DHT22;40915;50.826;4.356;2022-07-10T11:18:16;22.70;99.90
25628;DHT22;40915;50.826;4.356;2022-07-10T11:26:05;22.80;99.90
25628;DHT22;40915;50.826;4.356;2022-07-10T11:28:53;22.70;99.90
25628;DHT22;40915;50.826;4.356;2022-07-10T11:31:24;22.90;99.90
25628;DHT22;40915;50.826;4.356;2022-07-10T11:33:53;23.00;99.90
25628;DHT22;40915;50.826;4.356;2022-07-10T11:36:20;23.00;99.90
25628;DHT22;40915;50.826;4.356;2022-07-10T11:38:47;23.30;99.90
25628;DHT22;40915;50.826;4.356;2022-07-10T11:41:20;23.20;99.90
25628;DHT22;40915;50.826;4.356;2022-07-10T11:43:58;23.40;99.90
25628;DHT22;40915;50.826;4.356;2022-07-10T11:46:27;23.50;99.90
25628;DHT22;40915;50.826;4.356;2022-07-10T11:48:53;23.50;99.90
25628;DHT22;40915;50.826;4.356;2022-07-10T11:51:30;23.50;99.90
25628;DHT22;40915;50.826;4.356;2022-07-10T11:56:26;23.50;99.90
25628;DHT22;40915;50.826;4.356;2022-07-10T11:59:28;23.70;99.90
25628;DHT22;40915;50.826;4.356;2022-07-10T12:01:48;23.70;99.90
25628;DHT22;40915;50.826;4.356;2022-07-10T12:04:16;23.70;99.90
25628;DHT22;40915;50.826;4.356;2022-07-10T12:06:44;23.60;99.90
25628;DHT22;40915;50.826;4.356;2022-07-10T12:09:11;23.70;99.90
25628;DHT22;40915;50.826;4.356;2022-07-10T12:11:39;23.40;99.90
25628;DHT22;40915;50.826;4.356;2022-07-10T12:16:36;23.10;99.90
25628;DHT22;40915;50.826;4.356;2022-07-10T12:19:03;23.10;99.90
25628;DHT22;40915;50.826;4.356;2022-07-10T12:21:29;23.10;99.90
25628;DHT22;40915;50.826;4.356;2022-07-10T12:23:55;23.20;99.90
25628;DHT22;40915;50.826;4.356;2022-07-10T12:26:22;23.10;99.90
25628;DHT22;40915;50.826;4.356;2022-07-10T12:28:55;23.10;99.90
25628;DHT22;40915;50.826;4.356;2022-07-10T12:31:22;23.10;99.90
25628;DHT22;40915;50.826;4.356;2022-07-10T12:33:54;23.10;99.90
25628;DHT22;40915;50.826;4.356;2022-07-10T12:36:23;23.20;99.90
25628;DHT22;40915;50.826;4.356;2022-07-10T12:38:56;23.20;99.90
25628;DHT22;40915;50.826;4.356;2022-07-10T12:41:24;23.10;99.90
25628;DHT22;40915;50.826;4.356;2022-07-10T12:43:51;23.20;99.90
25628;DHT22;40915;50.826;4.356;2022-07-10T12:46:19;23.10;99.90
25628;DHT22;40915;50.826;4.356;2022-07-10T12:49:07;22.80;99.90
25628;DHT22;40915;50.826;4.356;2022-07-10T12:51:47;22.90;99.90
25628;DHT22;40915;50.826;4.356;2022-07-10T12:56:58;22.80;99.90
25628;DHT22;40915;50.826;4.356;2022-07-10T12:59:24;22.80;99.90
25628;DHT22;40915;50.826;4.356;2022-07-10T13:01:50;23.00;99.90
25628;DHT22;40915;50.826;4.356;2022-07-10T13:04:25;22.90;99.90
25628;DHT22;40915;50.826;4.356;2022-07-10T13:07:12;22.90;99.90
25628;DHT22;40915;50.826;4.356;2022-07-10T13:09:39;23.10;99.90
25628;DHT22;40915;50.826;4.356;2022-07-10T13:12:05;23.10;99.90
25628;DHT22;40915;50.826;4.356;2022-07-10T13:14:31;23.20;99.90
25628;DHT22;40915;50.826;4.356;2022-07-10T13:16:57;23.30;99.90
25628;DHT22;40915;50.826;4.356;2022-07-10T13:19:22;23.30;99.90
25628;DHT22;40915;50.826;4.356;2022-07-10T13:21:48;23.50;99.90
25628;DHT22;40915;50.826;4.356;2022-07-10T13:24:13;23.50;99.90
25628;DHT22;40915;50.826;4.356;2022-07-10T13:26:39;23.40;99.90
25628;DHT22;40915;50.826;4.356;2022-07-10T13:29:05;23.20;99.90
25628;DHT22;40915;50.826;4.356;2022-07-10T13:31:32;23.20;99.90
25628;DHT22;40915;50.826;4.356;2022-07-10T13:33:58;23.20;99.90
25628;DHT22;40915;50.826;4.356;2022-07-10T13:36:23;23.20;99.90
25628;DHT22;40915;50.826;4.356;2022-07-10T13:38:50;23.40;99.90
25628;DHT22;40915;50.826;4.356;2022-07-10T13:41:18;23.70;99.90
25628;DHT22;40915;50.826;4.356;2022-07-10T13:43:43;24.10;99.90
25628;DHT22;40915;50.826;4.356;2022-07-10T13:46:09;24.10;99.90
25628;DHT22;40915;50.826;4.356;2022-07-10T13:48:35;24.00;99.90
25628;DHT22;40915;50.826;4.356;2022-07-10T13:51:01;24.20;99.90
25628;DHT22;40915;50.826;4.356;2022-07-10T13:53:26;24.20;99.90
25628;DHT22;40915;50.826;4.356;2022-07-10T13:58:20;24.60;99.90
25628;DHT22;40915;50.826;4.356;2022-07-10T14:00:47;24.60;99.90
25628;DHT22;40915;50.826;4.356;2022-07-10T14:03:13;24.40;99.90
25628;DHT22;40915;50.826;4.356;2022-07-10T14:05:41;24.20;99.90
25628;DHT22;40915;50.826;4.356;2022-07-10T14:08:10;24.10;99.90
25628;DHT22;40915;50.826;4.356;2022-07-10T14:10:35;23.90;99.90
25628;DHT22;40915;50.826;4.356;2022-07-10T14:13:01;23.80;99.90
25628;DHT22;40915;50.826;4.356;2022-07-10T14:15:27;24.00;99.90
25628;DHT22;40915;50.826;4.356;2022-07-10T14:17:53;24.10;99.90
25628;DHT22;40915;50.826;4.356;2022-07-10T14:20:20;24.00;99.90
25628;DHT22;40915;50.826;4.356;2022-07-10T14:22:46;24.10;99.90
25628;DHT22;40915;50.826;4.356;2022-07-10T14:25:12;24.00;99.90
25628;DHT22;40915;50.826;4.356;2022-07-10T14:27:38;24.00;99.90
25628;DHT22;40915;50.826;4.356;2022-07-10T14:30:05;24.00;99.90
25628;DHT22;40915;50.826;4.356;2022-07-10T14:32:32;24.10;99.90
25628;DHT22;40915;50.826;4.356;2022-07-10T14:34:58;24.20;99.90
25628;DHT22;40915;50.826;4.356;2022-07-10T14:37:24;24.30;99.90
25628;DHT22;40915;50.826;4.356;2022-07-10T14:39:49;24.20;99.90
25628;DHT22;40915;50.826;4.356;2022-07-10T14:42:15;24.40;99.90
25628;DHT22;40915;50.826;4.356;2022-07-10T14:44:40;24.50;99.90
25628;DHT22;40915;50.826;4.356;2022-07-10T14:47:06;24.40;99.90
25628;DHT22;40915;50.826;4.356;2022-07-10T14:49:31;24.50;99.90
25628;DHT22;40915;50.826;4.356;2022-07-10T14:51:57;24.50;99.90
25628;DHT22;40915;50.826;4.356;2022-07-10T14:54:23;24.70;99.90
25628;DHT22;40915;50.826;4.356;2022-07-10T14:56:49;24.50;99.90
25628;DHT22;40915;50.826;4.356;2022-07-10T14:59:15;24.60;99.90
25628;DHT22;40915;50.826;4.356;2022-07-10T15:01:41;24.90;99.90
25628;DHT22;40915;50.826;4.356;2022-07-10T15:04:06;24.70;99.90
25628;DHT22;40915;50.826;4.356;2022-07-10T15:06:32;24.80;99.90
25628;DHT22;40915;50.826;4.356;2022-07-10T15:08:58;24.70;99.90
25628;DHT22;40915;50.826;4.356;2022-07-10T15:11:23;24.70;99.90
25628;DHT22;40915;50.826;4.356;2022-07-10T15:13:51;24.60;99.90
25628;DHT22;40915;50.826;4.356;2022-07-10T15:16:18;24.60;99.90
25628;DHT22;40915;50.826;4.356;2022-07-10T15:18:44;24.50;99.90
25628;DHT22;40915;50.826;4.356;2022-07-10T15:21:10;24.40;99.90
25628;DHT22;40915;50.826;4.356;2022-07-10T15:23:37;24.40;99.90
25628;DHT22;40915;50.826;4.356;2022-07-10T15:26:02;24.50;99.90
25628;DHT22;40915;50.826;4.356;2022-07-10T15:28:30;24.60;99.90
25628;DHT22;40915;50.826;4.356;2022-07-10T15:30:55;24.50;99.90
25628;DHT22;40915;50.826;4.356;2022-07-10T15:33:21;24.20;99.90
25628;DHT22;40915;50.826;4.356;2022-07-10T15:35:48;24.20;99.90
25628;DHT22;40915;50.826;4.356;2022-07-10T15:38:14;24.30;99.90
25628;DHT22;40915;50.826;4.356;2022-07-10T15:40:40;24.40;99.90
25628;DHT22;40915;50.826;4.356;2022-07-10T15:43:05;24.40;99.90
25628;DHT22;40915;50.826;4.356;2022-07-10T15:45:31;24.30;99.90
25628;DHT22;40915;50.826;4.356;2022-07-10T15:47:57;24.20;99.90
25628;DHT22;40915;50.826;4.356;2022-07-10T15:50:23;24.30;99.90
25628;DHT22;40915;50.826;4.356;2022-07-10T15:52:49;24.20;99.90
25628;DHT22;40915;50.826;4.356;2022-07-10T15:55:14;24.40;99.90
25628;DHT22;40915;50.826;4.356;2022-07-10T15:57:40;24.40;99.90
25628;DHT22;40915;50.826;4.356;2022-07-10T16:00:07;24.40;99.90
25628;DHT22;40915;50.826;4.356;2022-07-10T16:02:34;24.60;99.90
25628;DHT22;40915;50.826;4.356;2022-07-10T16:05:00;24.70;99.90
25628;DHT22;40915;50.826;4.356;2022-07-10T16:07:26;24.60;99.90
25628;DHT22;40915;50.826;4.356;2022-07-10T16:09:51;24.50;99.90
25628;DHT22;40915;50.826;4.356;2022-07-10T16:12:17;24.50;99.90
25628;DHT22;40915;50.826;4.356;2022-07-10T16:14:43;24.30;99.90
25628;DHT22;40915;50.826;4.356;2022-07-10T16:17:08;24.20;99.90
25628;DHT22;40915;50.826;4.356;2022-07-10T16:19:34;24.20;99.90
25628;DHT22;40915;50.826;4.356;2022-07-10T16:22:00;24.10;99.90
25628;DHT22;40915;50.826;4.356;2022-07-10T16:24:25;24.00;99.90